createdAt,value
2019-01-23T00:00:19.087Z,974.60
2019-01-23T00:01:17.422Z,974.58
2019-01-23T00:02:18.618Z,974.54
2019-01-23T00:03:18.875Z,974.59
2019-01-23T00:04:23.436Z,974.56
2019-01-23T00:05:26.090Z,974.56
2019-01-23T00:06:21.539Z,974.53
2019-01-23T00:07:20.027Z,974.52
2019-01-23T00:08:20.554Z,974.52
2019-01-23T00:09:20.586Z,974.49
2019-01-23T00:10:20.580Z,974.47
2019-01-23T00:11:20.631Z,974.46
2019-01-23T00:12:22.098Z,974.45
2019-01-23T00:13:23.034Z,974.43
2019-01-23T00:14:21.560Z,974.46
2019-01-23T00:15:20.748Z,974.45
2019-01-23T00:16:20.349Z,974.40
2019-01-23T00:17:35.584Z,974.44
2019-01-23T00:18:20.462Z,974.40
2019-01-23T00:19:22.087Z,974.40
2019-01-23T00:20:21.590Z,974.44
2019-01-23T00:21:20.795Z,974.37
2019-01-23T00:22:23.458Z,974.39
2019-01-23T00:23:23.126Z,974.41
2019-01-23T00:24:28.105Z,974.42
2019-01-23T00:25:23.097Z,974.40
2019-01-23T00:26:38.133Z,974.41
2019-01-23T00:27:23.578Z,974.36
2019-01-23T00:28:24.535Z,974.39
2019-01-23T00:29:23.580Z,974.36
2019-01-23T00:30:24.085Z,974.35
2019-01-23T00:31:24.098Z,974.34
2019-01-23T00:32:24.034Z,974.27
2019-01-23T00:33:27.580Z,974.33
2019-01-23T00:34:45.535Z,974.30
2019-01-23T00:35:24.646Z,974.32
2019-01-23T00:36:24.596Z,974.30
2019-01-23T00:37:28.041Z,974.30
2019-01-23T00:38:25.127Z,974.30
2019-01-23T00:39:25.094Z,974.30
2019-01-23T00:40:26.549Z,974.27
2019-01-23T00:41:48.580Z,974.25
2019-01-23T00:42:50.091Z,974.27
2019-01-23T00:43:28.083Z,974.26
2019-01-23T00:44:26.040Z,974.25
2019-01-23T00:45:27.037Z,974.21
2019-01-23T00:46:28.580Z,974.24
2019-01-23T00:47:25.679Z,974.23
2019-01-23T00:48:25.276Z,974.20
2019-01-23T00:49:30.071Z,974.16
2019-01-23T00:50:30.533Z,974.15
2019-01-23T00:51:25.532Z,974.14
2019-01-23T00:52:29.533Z,974.08
2019-01-23T00:53:29.040Z,974.09
2019-01-23T00:54:27.580Z,974.11
2019-01-23T00:55:29.094Z,974.02
2019-01-23T00:56:49.080Z,974.09
2019-01-23T00:57:28.533Z,974.00
2019-01-23T00:58:28.582Z,974.00
2019-01-23T00:59:34.364Z,974.02
2019-01-23T01:00:31.298Z,974.01
2019-01-23T01:01:29.096Z,973.98
2019-01-23T01:02:35.716Z,973.95
2019-01-23T01:03:27.489Z,973.96
2019-01-23T01:04:29.600Z,973.95
2019-01-23T01:05:29.584Z,973.96
2019-01-23T01:06:36.541Z,973.96
2019-01-23T01:07:28.153Z,973.93
2019-01-23T01:08:46.031Z,973.89
2019-01-23T01:09:30.040Z,973.89
2019-01-23T01:10:28.637Z,973.87
2019-01-23T01:11:33.218Z,973.90
2019-01-23T01:12:30.065Z,973.93
2019-01-23T01:13:29.110Z,973.82
2019-01-23T01:14:34.031Z,973.86
2019-01-23T01:15:31.079Z,973.83
2019-01-23T01:18:07.265Z,973.84
2019-01-23T01:19:01.712Z,973.79
2019-01-23T01:20:01.918Z,973.79
2019-01-23T01:21:02.259Z,973.78
2019-01-23T01:22:04.400Z,973.80
2019-01-23T01:23:05.235Z,973.79
2019-01-23T01:24:03.722Z,973.77
2019-01-23T01:25:02.902Z,973.75
2019-01-23T01:26:03.082Z,973.79
2019-01-23T01:27:06.230Z,973.73
2019-01-23T01:28:03.451Z,973.73
2019-01-23T01:29:07.436Z,973.69
2019-01-23T01:30:06.223Z,973.70
2019-01-23T01:31:07.778Z,973.72
2019-01-23T01:32:06.093Z,973.68
2019-01-23T01:33:06.239Z,973.70
2019-01-23T01:34:06.290Z,973.63
2019-01-23T01:35:08.866Z,973.73
2019-01-23T01:36:09.729Z,973.65
2019-01-23T01:38:49.563Z,973.67
2019-01-23T01:39:37.529Z,973.64
2019-01-23T01:40:37.128Z,973.66
2019-01-23T01:41:39.340Z,973.61
2019-01-23T01:42:39.035Z,973.63
2019-01-23T01:43:42.656Z,973.61
2019-01-23T01:44:49.744Z,973.60
2019-01-23T01:46:00.528Z,973.60
2019-01-23T01:46:46.109Z,973.59
2019-01-23T01:47:44.020Z,973.56
2019-01-23T01:48:39.210Z,973.54
2019-01-23T01:49:42.567Z,973.53
2019-01-23T01:50:39.900Z,973.53
2019-01-23T01:51:47.068Z,973.54
2019-01-23T01:52:42.124Z,973.53
2019-01-23T01:53:41.905Z,973.53
2019-01-23T01:54:42.517Z,973.51
2019-01-23T01:55:41.526Z,973.50
2019-01-23T01:56:41.572Z,973.50
2019-01-23T01:57:45.522Z,973.46
2019-01-23T01:58:45.053Z,973.52
2019-01-23T01:59:40.373Z,973.45
2019-01-23T02:00:40.580Z,973.46
2019-01-23T02:01:43.086Z,973.46
2019-01-23T02:02:43.013Z,973.43
2019-01-23T02:03:48.074Z,973.44
2019-01-23T02:05:19.026Z,973.47
2019-01-23T02:05:42.513Z,973.44
2019-01-23T02:06:41.742Z,973.44
2019-01-23T02:07:44.049Z,973.45
2019-01-23T02:08:43.154Z,973.44
2019-01-23T02:09:45.544Z,973.45
2019-01-23T02:10:42.937Z,973.48
2019-01-23T02:11:42.643Z,973.43
2019-01-23T02:12:50.565Z,973.45
2019-01-23T02:14:07.049Z,973.42
2019-01-23T02:14:47.075Z,973.40
2019-01-23T02:15:47.013Z,973.42
2019-01-23T02:16:44.497Z,973.37
2019-01-23T02:17:48.527Z,973.37
2019-01-23T02:19:06.566Z,973.39
2019-01-23T02:19:44.010Z,973.35
2019-01-23T02:20:44.652Z,973.37
2019-01-23T02:21:46.069Z,973.33
2019-01-23T02:22:46.410Z,973.29
2019-01-23T02:23:46.570Z,973.31
2019-01-23T02:24:52.575Z,973.28
2019-01-23T02:25:48.634Z,973.26
2019-01-23T02:26:46.231Z,973.25
2019-01-23T02:27:45.369Z,973.25
2019-01-23T02:28:47.061Z,973.20
2019-01-23T02:29:49.576Z,973.24
2019-01-23T02:30:47.573Z,973.21
2019-01-23T02:31:49.577Z,973.17
2019-01-23T02:32:47.060Z,973.23
2019-01-23T02:33:48.083Z,973.17
2019-01-23T02:34:46.405Z,973.19
2019-01-23T02:35:48.622Z,973.16
2019-01-23T02:36:53.572Z,973.17
2019-01-23T02:37:48.969Z,973.16
2019-01-23T02:38:49.023Z,973.13
2019-01-23T02:39:47.371Z,973.17
2019-01-23T02:40:55.098Z,973.18
2019-01-23T02:42:03.842Z,973.14
2019-01-23T02:42:50.034Z,973.10
2019-01-23T02:43:54.571Z,973.08
2019-01-23T02:44:50.079Z,973.03
2019-01-23T02:45:50.165Z,973.02
2019-01-23T02:46:49.027Z,972.96
2019-01-23T02:47:52.071Z,972.95
2019-01-23T02:48:48.676Z,972.96
2019-01-23T02:49:50.569Z,972.92
2019-01-23T02:50:49.057Z,972.90
2019-01-23T02:51:51.111Z,972.90
2019-01-23T02:52:51.732Z,972.92
2019-01-23T02:53:51.113Z,972.91
2019-01-23T02:55:12.453Z,972.91
2019-01-23T02:55:51.570Z,972.89
2019-01-23T02:56:53.035Z,972.90
2019-01-23T02:57:51.533Z,972.84
2019-01-23T02:58:50.145Z,972.84
2019-01-23T02:59:59.032Z,972.85
2019-01-23T03:00:53.026Z,972.82
2019-01-23T03:01:55.592Z,972.85
2019-01-23T03:02:52.578Z,972.81
2019-01-23T03:03:50.980Z,972.80
2019-01-23T03:04:55.517Z,972.79
2019-01-23T03:05:51.617Z,972.77
2019-01-23T03:07:00.026Z,972.79
2019-01-23T03:07:53.564Z,972.80
2019-01-23T03:08:52.755Z,972.82
2019-01-23T03:09:51.907Z,972.78
2019-01-23T03:10:53.575Z,972.78
2019-01-23T03:11:54.019Z,972.78
2019-01-23T03:13:09.031Z,972.77
2019-01-23T03:13:56.022Z,972.76
2019-01-23T03:14:56.576Z,972.78
2019-01-23T03:15:54.019Z,972.81
2019-01-23T03:16:55.523Z,972.79
2019-01-23T03:17:53.748Z,972.78
2019-01-23T03:18:55.702Z,972.77
2019-01-23T03:19:55.066Z,972.73
2019-01-23T03:20:57.561Z,972.74
2019-01-23T03:21:59.412Z,972.77
2019-01-23T03:22:57.019Z,972.76
2019-01-23T03:23:57.068Z,972.72
2019-01-23T03:24:58.067Z,972.75
2019-01-23T03:25:54.522Z,972.70
2019-01-23T03:26:58.061Z,972.69
2019-01-23T03:27:56.582Z,972.71
2019-01-23T03:28:54.768Z,972.69
2019-01-23T03:29:56.563Z,972.68
2019-01-23T03:30:55.797Z,972.71
2019-01-23T03:32:00.534Z,972.73
2019-01-23T03:33:11.064Z,972.68
2019-01-23T03:33:56.666Z,972.70
2019-01-23T03:34:57.567Z,972.70
2019-01-23T03:35:58.523Z,972.69
2019-01-23T03:37:00.520Z,972.68
2019-01-23T03:37:58.018Z,972.68
2019-01-23T03:38:58.022Z,972.61
2019-01-23T03:40:02.184Z,972.61
2019-01-23T03:40:56.523Z,972.58
2019-01-23T03:42:00.564Z,972.58
2019-01-23T03:42:58.563Z,972.59
2019-01-23T03:43:59.023Z,972.59
2019-01-23T03:44:59.083Z,972.61
2019-01-23T03:46:01.063Z,972.59
2019-01-23T03:46:59.276Z,972.59
2019-01-23T03:48:01.516Z,972.56
2019-01-23T03:49:01.543Z,972.50
2019-01-23T03:50:00.585Z,972.49
2019-01-23T03:51:02.066Z,972.49
2019-01-23T03:52:02.015Z,972.47
2019-01-23T03:53:01.162Z,972.43
2019-01-23T03:54:01.567Z,972.41
2019-01-23T03:54:58.764Z,972.44
2019-01-23T03:56:00.573Z,972.40
2019-01-23T03:57:07.061Z,972.48
2019-01-23T03:58:03.063Z,972.42
2019-01-23T03:59:01.511Z,972.43
2019-01-23T04:00:22.538Z,972.39
2019-01-23T04:00:59.957Z,972.41
2019-01-23T04:02:02.015Z,972.38
2019-01-23T04:03:04.073Z,972.34
2019-01-23T04:04:02.671Z,972.40
2019-01-23T04:05:00.597Z,972.37
2019-01-23T04:06:02.574Z,972.41
2019-01-23T04:07:01.530Z,972.40
2019-01-23T04:08:02.270Z,972.38
2019-01-23T04:09:03.071Z,972.40
2019-01-23T04:10:04.056Z,972.40
2019-01-23T04:11:01.522Z,972.41
2019-01-23T04:12:25.017Z,972.40
2019-01-23T04:13:03.041Z,972.40
2019-01-23T04:14:05.023Z,972.39
2019-01-23T04:15:11.864Z,972.36
2019-01-23T04:16:05.529Z,972.36
2019-01-23T04:17:04.070Z,972.33
2019-01-23T04:18:03.686Z,972.37
2019-01-23T04:19:04.560Z,972.34
2019-01-23T04:20:03.911Z,972.38
2019-01-23T04:21:04.232Z,972.36
2019-01-23T04:22:03.434Z,972.33
2019-01-23T04:23:04.856Z,972.35
2019-01-23T04:24:06.523Z,972.37
2019-01-23T04:25:06.025Z,972.34
2019-01-23T04:26:28.023Z,972.36
2019-01-23T04:27:08.063Z,972.36
2019-01-23T04:28:07.519Z,972.35
2019-01-23T04:29:06.534Z,972.30
2019-01-23T04:30:06.596Z,972.31
2019-01-23T04:31:27.566Z,972.32
2019-01-23T04:32:10.240Z,972.31
2019-01-23T04:33:05.223Z,972.30
2019-01-23T04:34:07.703Z,972.27
2019-01-23T04:35:07.618Z,972.28
2019-01-23T04:36:05.969Z,972.26
2019-01-23T04:37:07.530Z,972.27
2019-01-23T04:38:08.067Z,972.26
2019-01-23T04:39:11.008Z,972.24
2019-01-23T04:40:10.013Z,972.23
2019-01-23T04:41:08.572Z,972.23
2019-01-23T04:42:08.526Z,972.21
2019-01-23T04:43:11.929Z,972.17
2019-01-23T04:44:09.126Z,972.19
2019-01-23T04:45:12.020Z,972.16
2019-01-23T04:46:08.488Z,972.21
2019-01-23T04:47:12.045Z,972.18
2019-01-23T04:48:10.598Z,972.16
2019-01-23T04:49:12.063Z,972.18
2019-01-23T04:50:10.103Z,972.16
2019-01-23T04:51:10.067Z,972.15
2019-01-23T04:52:15.517Z,972.15
2019-01-23T04:53:37.562Z,972.13
2019-01-23T04:54:10.567Z,972.16
2019-01-23T04:55:12.565Z,972.11
2019-01-23T04:56:09.793Z,972.10
2019-01-23T04:57:14.112Z,972.11
2019-01-23T04:58:10.321Z,972.09
2019-01-23T04:59:11.558Z,972.10
2019-01-23T05:00:11.589Z,972.06
2019-01-23T05:01:12.561Z,972.09
2019-01-23T05:02:11.025Z,972.03
2019-01-23T05:03:11.481Z,972.06
2019-01-23T05:05:45.978Z,972.03
2019-01-23T05:06:46.010Z,972.05
2019-01-23T05:07:43.495Z,972.03
2019-01-23T05:08:45.492Z,972.04
2019-01-23T05:09:59.138Z,972.02
2019-01-23T05:10:44.517Z,971.98
2019-01-23T05:11:49.004Z,971.99
2019-01-23T05:12:44.299Z,971.98
2019-01-23T05:13:46.163Z,971.98
2019-01-23T05:14:46.271Z,971.95
2019-01-23T05:15:52.218Z,972.01
2019-01-23T05:16:46.183Z,971.99
2019-01-23T05:17:45.990Z,971.96
2019-01-23T05:18:46.941Z,971.97
2019-01-23T05:19:59.991Z,971.96
2019-01-23T05:20:45.954Z,972.01
2019-01-23T05:21:47.480Z,971.98
2019-01-23T05:23:00.495Z,971.97
2019-01-23T05:23:48.938Z,971.95
2019-01-23T05:24:50.443Z,971.99
2019-01-23T05:25:47.441Z,972.00
2019-01-23T05:26:46.544Z,971.98
2019-01-23T05:27:49.950Z,971.94
2019-01-23T05:28:47.492Z,971.95
2019-01-23T05:29:54.835Z,972.00
2019-01-23T05:30:47.100Z,971.96
2019-01-23T05:31:48.951Z,971.95
2019-01-23T05:32:48.487Z,971.92
2019-01-23T05:33:55.430Z,971.92
2019-01-23T05:34:49.491Z,971.91
2019-01-23T05:35:51.984Z,971.89
2019-01-23T05:36:50.984Z,971.86
2019-01-23T05:38:03.039Z,971.90
2019-01-23T05:39:10.483Z,971.83
2019-01-23T05:39:49.827Z,971.81
2019-01-23T05:40:49.936Z,971.84
2019-01-23T05:41:51.937Z,971.84
2019-01-23T05:42:50.568Z,971.81
2019-01-23T05:43:51.986Z,971.83
2019-01-23T05:44:50.511Z,971.83
2019-01-23T05:45:52.481Z,971.84
2019-01-23T05:46:50.430Z,971.86
2019-01-23T05:47:50.982Z,971.82
2019-01-23T05:48:52.987Z,971.84
2019-01-23T05:49:50.986Z,971.79
2019-01-23T05:50:51.449Z,971.83
2019-01-23T05:51:51.529Z,971.80
2019-01-23T05:52:50.988Z,971.78
2019-01-23T05:53:57.003Z,971.75
2019-01-23T05:54:51.982Z,971.81
2019-01-23T05:55:51.996Z,971.78
2019-01-23T05:56:50.570Z,971.79
2019-01-23T05:57:52.496Z,971.77
2019-01-23T05:58:50.960Z,971.74
2019-01-23T05:59:52.984Z,971.76
2019-01-23T06:00:58.991Z,971.76
2019-01-23T06:01:57.990Z,971.71
2019-01-23T06:03:07.481Z,971.69
2019-01-23T06:03:53.372Z,971.64
2019-01-23T06:04:54.491Z,971.62
2019-01-23T06:05:59.486Z,971.66
2019-01-23T06:06:56.994Z,971.68
2019-01-23T06:07:54.114Z,971.64
2019-01-23T06:09:08.022Z,971.68
2019-01-23T06:09:54.844Z,971.60
2019-01-23T06:11:08.485Z,971.59
2019-01-23T06:11:52.930Z,971.63
2019-01-23T06:12:53.226Z,971.59
2019-01-23T06:13:53.320Z,971.62
2019-01-23T06:14:55.024Z,971.62
2019-01-23T06:16:01.482Z,971.62
2019-01-23T06:16:57.483Z,971.65
2019-01-23T06:17:53.812Z,971.62
2019-01-23T06:18:54.007Z,971.62
2019-01-23T06:19:58.962Z,971.58
2019-01-23T06:20:56.051Z,971.62
2019-01-23T06:21:56.491Z,971.61
2019-01-23T06:22:55.832Z,971.62
2019-01-23T06:23:56.487Z,971.56
2019-01-23T06:24:55.203Z,971.58
2019-01-23T06:25:57.415Z,971.60
2019-01-23T06:26:55.438Z,971.59
2019-01-23T06:27:58.935Z,971.57
2019-01-23T06:28:55.661Z,971.59
2019-01-23T06:29:58.160Z,971.54
2019-01-23T06:31:12.035Z,971.60
2019-01-23T06:32:00.054Z,971.64
2019-01-23T06:32:56.960Z,971.63
2019-01-23T06:33:57.591Z,971.63
2019-01-23T06:35:19.483Z,971.64
2019-01-23T06:35:58.094Z,971.63
2019-01-23T06:36:58.977Z,971.64
2019-01-23T06:37:58.987Z,971.61
2019-01-23T06:38:59.040Z,971.59
2019-01-23T06:39:59.482Z,971.55
2019-01-23T06:41:01.485Z,971.58
2019-01-23T06:42:01.492Z,971.60
2019-01-23T06:44:38.572Z,971.54
2019-01-23T06:45:29.993Z,971.50
2019-01-23T06:46:32.082Z,971.52
2019-01-23T06:47:32.078Z,971.53
2019-01-23T06:48:30.539Z,971.55
2019-01-23T06:49:30.753Z,971.50
2019-01-23T06:50:33.527Z,971.55
2019-01-23T06:51:33.074Z,971.56
2019-01-23T06:52:31.268Z,971.52
2019-01-23T06:53:35.079Z,971.52
2019-01-23T06:54:33.777Z,971.50
2019-01-23T06:55:33.580Z,971.48
2019-01-23T06:56:35.566Z,971.49
2019-01-23T06:57:34.066Z,971.49
2019-01-23T06:58:33.522Z,971.53
2019-01-23T06:59:32.493Z,971.48
2019-01-23T07:00:35.588Z,971.48
2019-01-23T07:01:35.526Z,971.48
2019-01-23T07:02:35.555Z,971.49
2019-01-23T07:03:35.129Z,971.52
2019-01-23T07:04:34.031Z,971.48
2019-01-23T07:05:34.511Z,971.50
2019-01-23T07:06:37.570Z,971.50
2019-01-23T07:07:35.516Z,971.48
2019-01-23T07:08:36.070Z,971.48
2019-01-23T07:09:40.481Z,971.49
2019-01-23T07:10:36.113Z,971.53
2019-01-23T07:11:39.522Z,971.51
2019-01-23T07:12:34.750Z,971.51
2019-01-23T07:13:35.949Z,971.54
2019-01-23T07:14:47.032Z,971.54
2019-01-23T07:15:37.583Z,971.55
2019-01-23T07:16:51.069Z,971.48
2019-01-23T07:17:56.745Z,971.55
2019-01-23T07:18:36.537Z,971.52
2019-01-23T07:19:38.059Z,971.49
2019-01-23T07:20:43.101Z,971.50
2019-01-23T07:21:40.070Z,971.43
2019-01-23T07:22:41.568Z,971.45
2019-01-23T07:23:38.764Z,971.49
2019-01-23T07:25:01.567Z,971.45
2019-01-23T07:25:38.584Z,971.45
2019-01-23T07:26:37.057Z,971.45
2019-01-23T07:27:39.072Z,971.40
2019-01-23T07:28:41.065Z,971.43
2019-01-23T07:29:40.065Z,971.43
2019-01-23T07:30:39.519Z,971.43
2019-01-23T07:31:41.021Z,971.42
2019-01-23T07:32:37.858Z,971.42
2019-01-23T07:33:53.564Z,971.41
2019-01-23T07:34:38.265Z,971.45
2019-01-23T07:35:38.479Z,971.42
2019-01-23T07:36:42.573Z,971.47
2019-01-23T07:37:41.158Z,971.48
2019-01-23T07:38:42.564Z,971.45
2019-01-23T07:39:39.133Z,971.47
2019-01-23T07:40:44.103Z,971.47
2019-01-23T07:41:39.442Z,971.50
2019-01-23T07:43:05.554Z,971.46
2019-01-23T07:44:00.739Z,971.49
2019-01-23T07:45:03.519Z,971.46
2019-01-23T07:45:44.066Z,971.47
2019-01-23T07:46:42.066Z,971.49
2019-01-23T07:47:41.517Z,971.46
2019-01-23T07:48:42.573Z,971.44
2019-01-23T07:49:42.118Z,971.46
2019-01-23T07:50:44.275Z,971.46
2019-01-23T07:51:44.025Z,971.43
2019-01-23T07:52:41.421Z,971.43
2019-01-23T07:53:48.067Z,971.41
2019-01-23T07:54:57.574Z,971.37
2019-01-23T07:55:46.017Z,971.39
2019-01-23T07:56:45.566Z,971.42
2019-01-23T07:57:45.024Z,971.39
2019-01-23T07:58:42.256Z,971.39
2019-01-23T07:59:49.164Z,971.42
2019-01-23T08:00:44.575Z,971.41
2019-01-23T08:01:44.530Z,971.45
2019-01-23T08:02:44.574Z,971.42
2019-01-23T08:03:44.062Z,971.46
2019-01-23T08:04:47.071Z,971.46
2019-01-23T08:05:43.379Z,971.46
2019-01-23T08:07:05.620Z,971.46
2019-01-23T08:07:45.566Z,971.48
2019-01-23T08:08:45.629Z,971.46
2019-01-23T08:09:44.111Z,971.49
2019-01-23T08:10:45.308Z,971.47
2019-01-23T08:11:46.083Z,971.47
2019-01-23T08:12:45.529Z,971.46
2019-01-23T08:13:46.919Z,971.45
2019-01-23T08:14:49.567Z,971.48
2019-01-23T08:15:49.063Z,971.52
2019-01-23T08:16:46.516Z,971.48
2019-01-23T08:17:47.570Z,971.48
2019-01-23T08:18:46.770Z,971.50
2019-01-23T08:19:50.609Z,971.46
2019-01-23T08:20:46.179Z,971.48
2019-01-23T08:21:50.093Z,971.46
2019-01-23T08:22:53.521Z,971.46
2019-01-23T08:23:49.623Z,971.49
2019-01-23T08:24:47.379Z,971.48
2019-01-23T08:25:50.523Z,971.50
2019-01-23T08:26:47.084Z,971.48
2019-01-23T08:27:49.132Z,971.50
2019-01-23T08:28:49.569Z,971.44
2019-01-23T08:29:49.508Z,971.45
2019-01-23T08:30:49.563Z,971.48
2019-01-23T08:31:51.562Z,971.45
2019-01-23T08:32:48.020Z,971.47
2019-01-23T08:33:50.065Z,971.42
2019-01-23T08:34:50.086Z,971.49
2019-01-23T08:35:51.104Z,971.49
2019-01-23T08:37:04.571Z,971.51
2019-01-23T08:37:55.566Z,971.52
2019-01-23T08:38:51.366Z,971.52
2019-01-23T08:39:51.476Z,971.52
2019-01-23T08:40:51.081Z,971.49
2019-01-23T08:42:11.524Z,971.49
2019-01-23T08:42:51.700Z,971.49
2019-01-23T08:43:49.885Z,971.49
2019-01-23T08:44:53.569Z,971.47
2019-01-23T08:45:57.068Z,971.46
2019-01-23T08:46:50.354Z,971.43
2019-01-23T08:47:52.063Z,971.40
2019-01-23T08:48:52.568Z,971.43
2019-01-23T08:49:50.773Z,971.41
2019-01-23T08:50:50.968Z,971.46
2019-01-23T08:51:52.522Z,971.47
2019-01-23T08:53:14.063Z,971.44
2019-01-23T08:53:55.065Z,971.45
2019-01-23T08:54:55.062Z,971.38
2019-01-23T08:55:55.521Z,971.42
2019-01-23T08:56:52.890Z,971.40
2019-01-23T08:57:53.515Z,971.40
2019-01-23T08:58:56.060Z,971.35
2019-01-23T08:59:54.100Z,971.41
2019-01-23T09:00:54.058Z,971.40
2019-01-23T09:01:55.664Z,971.43
2019-01-23T09:02:54.686Z,971.46
2019-01-23T09:03:52.886Z,971.45
2019-01-23T09:04:55.073Z,971.47
2019-01-23T09:05:54.017Z,971.49
2019-01-23T09:06:54.028Z,971.49
2019-01-23T09:07:55.581Z,971.50
2019-01-23T09:09:06.059Z,971.52
2019-01-23T09:09:56.516Z,971.48
2019-01-23T09:10:56.075Z,971.47
2019-01-23T09:11:55.019Z,971.53
2019-01-23T09:12:54.522Z,971.49
2019-01-23T09:13:58.021Z,971.50
2019-01-23T09:14:58.017Z,971.54
2019-01-23T09:15:54.859Z,971.52
2019-01-23T09:16:59.061Z,971.47
2019-01-23T09:17:57.070Z,971.46
2019-01-23T09:18:58.054Z,971.51
2019-01-23T09:19:59.096Z,971.52
2019-01-23T09:21:00.593Z,971.48
2019-01-23T09:22:11.577Z,971.49
2019-01-23T09:22:57.513Z,971.47
2019-01-23T09:23:58.091Z,971.46
2019-01-23T09:25:20.516Z,971.44
2019-01-23T09:26:00.704Z,971.45
2019-01-23T09:26:57.520Z,971.48
2019-01-23T09:27:59.521Z,971.52
2019-01-23T09:29:03.566Z,971.48
2019-01-23T09:29:58.605Z,971.45
2019-01-23T09:30:59.106Z,971.45
2019-01-23T09:31:59.059Z,971.46
2019-01-23T09:32:59.063Z,971.48
2019-01-23T09:33:59.571Z,971.46
2019-01-23T09:34:59.745Z,971.43
2019-01-23T09:36:02.522Z,971.47
2019-01-23T09:36:59.514Z,971.47
2019-01-23T09:37:59.013Z,971.42
2019-01-23T09:38:58.348Z,971.41
2019-01-23T09:40:06.522Z,971.40
2019-01-23T09:41:02.956Z,971.37
2019-01-23T09:42:01.223Z,971.40
2019-01-23T09:43:01.046Z,971.37
2019-01-23T09:44:01.537Z,971.41
2019-01-23T09:46:33.829Z,971.35
2019-01-23T09:47:32.879Z,971.36
2019-01-23T09:48:32.877Z,971.38
2019-01-23T09:49:31.451Z,971.40
2019-01-23T09:50:34.337Z,971.35
2019-01-23T09:51:32.210Z,971.37
2019-01-23T09:52:32.951Z,971.39
2019-01-23T09:53:32.151Z,971.42
2019-01-23T09:54:33.390Z,971.43
2019-01-23T09:55:34.389Z,971.45
2019-01-23T09:56:44.122Z,971.46
2019-01-23T09:57:36.329Z,971.51
2019-01-23T09:58:34.880Z,971.51
2019-01-23T09:59:34.911Z,971.51
2019-01-23T10:00:33.365Z,971.51
2019-01-23T10:01:35.378Z,971.52
2019-01-23T10:02:36.332Z,971.51
2019-01-23T10:03:38.092Z,971.53
2019-01-23T10:04:38.837Z,971.55
2019-01-23T10:05:50.881Z,971.52
2019-01-23T10:06:39.344Z,971.46
2019-01-23T10:07:37.426Z,971.49
2019-01-23T10:08:40.738Z,971.50
2019-01-23T10:09:59.922Z,971.48
2019-01-23T10:10:38.177Z,971.51
2019-01-23T10:11:37.378Z,971.46
2019-01-23T10:12:40.427Z,971.44
2019-01-23T10:16:49.860Z,971.45
2019-01-23T10:19:17.834Z,971.52
2019-01-23T10:20:15.878Z,971.51
2019-01-23T10:21:25.948Z,971.56
2019-01-23T10:22:39.355Z,971.52
2019-01-23T10:23:14.685Z,971.48
2019-01-23T10:24:13.942Z,971.46
2019-01-23T10:25:21.864Z,971.49
2019-01-23T10:26:29.966Z,971.50
2019-01-23T10:31:55.503Z,971.38
2019-01-23T10:32:55.441Z,971.38
2019-01-23T10:33:54.427Z,971.36
2019-01-23T10:34:57.944Z,971.36
2019-01-23T10:35:54.953Z,971.36
2019-01-23T10:40:20.692Z,971.41
2019-01-23T10:40:57.092Z,971.36
2019-01-23T10:41:59.218Z,971.35
2019-01-23T10:42:58.430Z,971.35
2019-01-23T10:44:01.195Z,971.34
2019-01-23T10:44:57.791Z,971.36
2019-01-23T10:45:57.967Z,971.26
2019-01-23T10:46:58.161Z,971.31
2019-01-23T10:48:02.197Z,971.29
2019-01-23T10:48:58.542Z,971.33
2019-01-23T10:50:14.392Z,971.32
2019-01-23T10:51:14.714Z,971.37
2019-01-23T10:52:15.660Z,971.26
2019-01-23T10:53:06.219Z,971.33
2019-01-23T10:54:01.229Z,971.37
2019-01-23T10:55:07.240Z,971.38
2019-01-23T10:56:02.681Z,971.39
2019-01-23T10:57:02.051Z,971.36
2019-01-23T10:58:01.749Z,971.30
2019-01-23T10:59:02.831Z,971.32
2019-01-23T11:00:02.190Z,971.33
2019-01-23T11:01:16.192Z,971.32
2019-01-23T11:02:02.193Z,971.34
2019-01-23T11:03:09.861Z,971.34
2019-01-23T11:04:06.741Z,971.36
2019-01-23T11:05:05.733Z,971.35
2019-01-23T11:06:09.388Z,971.34
2019-01-23T11:07:01.385Z,971.30
2019-01-23T11:08:01.471Z,971.30
2019-01-23T11:09:01.663Z,971.31
2019-01-23T11:10:02.896Z,971.26
2019-01-23T11:11:03.708Z,971.30
2019-01-23T11:12:04.145Z,971.26
2019-01-23T11:13:31.190Z,971.23
2019-01-23T11:14:02.621Z,971.24
2019-01-23T11:15:04.686Z,971.19
2019-01-23T11:16:25.527Z,971.25
2019-01-23T11:17:08.165Z,971.20
2019-01-23T11:18:03.242Z,971.22
2019-01-23T11:19:04.465Z,971.15
2019-01-23T11:20:26.221Z,971.17
2019-01-23T11:21:03.751Z,971.17
2019-01-23T11:22:04.269Z,971.22
2019-01-23T11:23:04.994Z,971.24
2019-01-23T11:24:06.188Z,971.20
2019-01-23T11:25:06.214Z,971.22
2019-01-23T11:26:12.188Z,971.18
2019-01-23T11:27:04.629Z,971.18
2019-01-23T11:28:04.842Z,971.17
2019-01-23T11:29:06.879Z,971.18
2019-01-23T11:30:07.184Z,971.19
2019-01-23T11:31:21.206Z,971.19
2019-01-23T11:32:05.876Z,971.20
2019-01-23T11:33:09.707Z,971.20
2019-01-23T11:34:05.948Z,971.20
2019-01-23T11:35:07.719Z,971.22
2019-01-23T11:36:14.188Z,971.20
2019-01-23T11:37:09.637Z,971.19
2019-01-23T11:38:08.282Z,971.21
2019-01-23T11:39:09.648Z,971.25
2019-01-23T11:40:08.690Z,971.20
2019-01-23T11:41:07.174Z,971.20
2019-01-23T11:42:07.265Z,971.22
2019-01-23T11:43:08.133Z,971.21
2019-01-23T11:44:08.630Z,971.17
2019-01-23T11:45:12.646Z,971.18
2019-01-23T11:46:09.688Z,971.21
2019-01-23T11:47:08.015Z,971.16
2019-01-23T11:48:10.147Z,971.15
2019-01-23T11:49:10.203Z,971.19
2019-01-23T11:50:09.639Z,971.19
2019-01-23T11:51:10.690Z,971.22
2019-01-23T11:52:09.640Z,971.17
2019-01-23T11:53:10.692Z,971.23
2019-01-23T11:54:25.188Z,971.23
2019-01-23T11:55:16.190Z,971.17
2019-01-23T11:56:17.594Z,971.19
2019-01-23T11:57:11.987Z,971.19
2019-01-23T11:58:11.713Z,971.20
2019-01-23T11:59:11.738Z,971.24
2019-01-23T12:00:14.694Z,971.21
2019-01-23T12:01:12.144Z,971.28
2019-01-23T12:02:10.604Z,971.23
2019-01-23T12:03:12.648Z,971.23
2019-01-23T12:04:10.985Z,971.27
2019-01-23T12:07:25.768Z,971.29
2019-01-23T12:08:04.804Z,971.25
2019-01-23T12:08:44.261Z,971.28
2019-01-23T12:09:48.292Z,971.24
2019-01-23T12:10:46.259Z,971.27
2019-01-23T12:11:44.339Z,971.26
2019-01-23T12:12:46.805Z,971.25
2019-01-23T12:13:45.855Z,971.25
2019-01-23T12:14:44.317Z,971.23
2019-01-23T12:15:53.272Z,971.24
2019-01-23T12:16:46.314Z,971.26
2019-01-23T12:17:46.774Z,971.25
2019-01-23T12:18:47.464Z,971.23
2019-01-23T12:19:53.768Z,971.24
2019-01-23T12:20:48.298Z,971.24
2019-01-23T12:21:51.274Z,971.24
2019-01-23T12:22:52.816Z,971.20
2019-01-23T12:23:46.983Z,971.26
2019-01-23T12:24:46.796Z,971.21
2019-01-23T12:25:49.077Z,971.23
2019-01-23T12:26:48.643Z,971.23
2019-01-23T12:28:17.326Z,971.23
2019-01-23T12:28:48.312Z,971.27
2019-01-23T12:29:50.064Z,971.32
2019-01-23T12:30:50.574Z,971.32
2019-01-23T12:31:49.257Z,971.25
2019-01-23T12:32:48.844Z,971.28
2019-01-23T12:33:48.884Z,971.25
2019-01-23T12:34:49.513Z,971.29
2019-01-23T12:35:52.179Z,971.27
2019-01-23T12:36:52.380Z,971.28
2019-01-23T12:37:47.961Z,971.30
2019-01-23T12:38:51.267Z,971.27
2019-01-23T12:40:04.503Z,971.31
2019-01-23T12:40:49.605Z,971.27
2019-01-23T12:41:53.381Z,971.29
2019-01-23T12:42:52.811Z,971.26
2019-01-23T12:43:50.846Z,971.28
2019-01-23T12:44:50.209Z,971.22
2019-01-23T12:45:50.363Z,971.24
2019-01-23T12:46:49.446Z,971.26
2019-01-23T12:47:49.686Z,971.22
2019-01-23T12:48:51.816Z,971.25
2019-01-23T12:49:50.011Z,971.26
2019-01-23T12:50:50.207Z,971.23
2019-01-23T12:51:58.749Z,971.28